• Join FlightAware (Why Join?)
  • Login
  • US Flag GB Flag 
00:50 EDT


 

Airport Tracker/Info


-or-


 

Live Flight TrackerFlight Track Log ✈ UCA4846 ✈ 30-Aug-2013 ✈ KBUF - KEWR

Flight Track Log - Related Links

Times and Time Zones

All times are in EDT time to prevent confusion due to time zone crossing. See the UCA4846 flight status page for this flight to view local times or setup timezone preferences in your user account.

Time Position Orientation Groundspeed Altitude Reporting Facility
EDT Latitude Longitude Course Direction KTS MPH feet Rate Location/Type
14:16 42.9333 -78.7333 122° Southeast 125 144 1,200  Level Buffalo TRACON
14:17 42.9000 -78.7500 200° South 146 168 2,200 1,200 Climbing Buffalo TRACON
14:18 42.9000 -78.7000 90° East 208 239 3,300 1,200 Climbing Buffalo TRACON
14:19 42.9000 -78.6000 90° East 200 230 4,800 1,260 Climbing Buffalo TRACON
14:20 42.8897 -78.5117 99° East 209 241 6,600 1,200 Climbing Cleveland Center
14:21 42.8864 -78.4467 94° East 195 224 7,600 1,080 Climbing Cleveland Center
14:22 42.3514 -75.9314 122° Southeast  Level FlightAware Approximate
14:22 42.8789 -78.3703 98° East 201 231 8,800  Level Cleveland Center
14:23 42.8731 -78.2883 96° East 201 231 10,000 600 Climbing Cleveland Center
14:24 42.8692 -78.1981 93° East 207 238 10,000 540 Level Cleveland Center
14:25 42.8611 -78.1161 98° East 230 265 11,100 1,020 Climbing Cleveland Center
14:26 42.8550 -78.0286 95° East 235 270 12,100 900 Climbing Cleveland Center
14:27 42.8511 -77.9408 93° East 235 270 12,900 780 Climbing Cleveland Center
14:28 42.8450 -77.8589 96° East 230 265 13,700 660 Climbing Cleveland Center
14:30 42.8364 -77.6822 94° East 236 272 15,000 420 Climbing New York Center
14:31 42.8336 -77.5828 92° East 242 278 15,000  Level New York Center
14:32 42.8333 -77.4783 90° East 259 298 15,000  Level New York Center
14:34 42.8302 -77.4222 94° East  Level FlightAware Approximate
14:34 42.8286 -77.2631 94° East 277 319 15,000  Level New York Center
14:35 42.8258 -77.1581 92° East 277 319 15,000  Level New York Center
14:36 42.8233 -77.0503 92° East 277 319 15,000  Level New York Center
14:37 42.8058 -76.9469 103° East 277 319 15,000  Level New York Center
14:38 42.7667 -76.8558 120° Southeast 271 312 15,000  Level New York Center
14:39 42.7256 -76.7644 121° Southeast 281 323 15,000  Level New York Center
14:40 42.6844 -76.6731 121° Southeast 281 323 15,000  Level New York Center
14:41 42.6431 -76.5792 121° Southeast 286 329 15,000  Level New York Center
14:42 42.5914 -76.4736 124° Southeast 284 327 15,000  Level Boston Center
14:43 42.5511 -76.3778 120° Southeast 284 327 15,000  Level Boston Center
14:44 42.5103 -76.2878 122° Southeast 284 327 15,000 -60 Level Boston Center
14:45 42.4675 -76.1953 122° Southeast 284 327 14,900  Descending Boston Center
14:46 42.4286 -76.1083 121° Southeast 284 327 15,000  Climbing Boston Center
14:47 42.3858 -76.0158 122° Southeast 290 334 15,000  Level Boston Center
14:49 42.3703 -75.9719 122° Southeast  Level FlightAware Approximate
14:49 42.3039 -75.8342 122° Southeast 285 328 15,000  Level Boston Center
14:50 42.2625 -75.7478 123° Southeast 280 322 14,900  Descending Boston Center
14:51 42.2214 -75.6561 121° Southeast 280 322 15,000  Climbing Boston Center
14:52 42.1822 -75.5672 121° Southeast 280 322 15,000  Level Boston Center
14:53 42.1389 -75.4781 123° Southeast 280 322 15,000  Level Boston Center
14:54 42.0975 -75.3867 121° Southeast 280 322 15,000  Level Boston Center
14:55 42.0581 -75.2953 120° Southeast 285 328 15,000  Level Boston Center
14:56 42.0228 -75.2014 117° Southeast 285 328 15,000  Level Boston Center
14:57 41.9856 -75.1075 118° Southeast 280 322 15,000  Level Boston Center
14:58 41.9481 -75.0139 118° Southeast 280 322 15,000  Level Boston Center
14:59 41.9147 -74.9203 116° Southeast 280 322 15,000 -480 Level Boston Center
15:00 41.8578 -74.8511 138° Southeast 280 322 14,100 -1,440 Descending Boston Center
15:01 41.7794 -74.8092 158° South 289 333 12,200 -1,740 Descending Boston Center
15:02 41.7053 -74.7647 156° South 294 338 10,600 -1,680 Descending Boston Center
15:03 41.6333 -74.7233 157° South 294 338 8,900 -1,500 Descending Boston Center
15:04 41.5717 -74.6850 155° Southeast 288 331 7,600 -1,320 Descending Boston Center
15:05 41.4972 -74.6436 157° South 270 311 6,300 -840 Descending Boston Center
15:06 41.4375 -74.6083 156° South 270 311 6,000 -120 Descending Boston Center
15:08 41.3167 -74.6333 189° South 254 292 6,000  Level New York TRACON
15:09 41.2500 -74.6333 180° South 245 282 6,000  Level New York TRACON
15:10 41.1833 -74.6167 169° South 251 289 6,000 -180 Level New York TRACON
15:11 41.1167 -74.6000 169° South 258 297 5,700 -540 Descending New York TRACON
15:12 41.0333 -74.5667 163° South 264 304 5,000 -360 Descending New York TRACON
15:13 41.0000 -74.5000 124° Southeast 273 314 5,000  Level New York TRACON
15:14 41.0333 -74.4167 62° Northeast 245 282 5,000  Level New York TRACON
15:15 41.0667 -74.3333 62° Northeast 226 260 5,000  Level New York TRACON
15:16 41.0833 -74.2667 72° East 229 264 5,000  Level New York TRACON
15:17 41.0333 -74.2000 135° Southeast 224 258 5,000 -480 Level New York TRACON
15:18 40.9833 -74.1333 135° Southeast 222 255 4,000 -720 Descending New York TRACON
15:19 40.9333 -74.0833 143° Southeast 219 252 3,600 -540 Descending New York TRACON
15:20 40.8833 -74.0500 153° Southeast 195 224 3,000 -300 Descending New York TRACON
15:21 40.8333 -74.0667 194° South 186 214 3,000 -420 Level New York TRACON
15:22 40.8000 -74.1000 217° Southwest 183 211 2,200 -900 Descending New York TRACON
15:23 40.7500 -74.1333 207° Southwest 160 184 1,200 -840 Descending New York TRACON
15:24 40.7333 -74.1500 217° Southwest 129 148 600 -720 Descending New York TRACON
15:26 40.6925 -74.1687 143° Southeast  Level Estimated
15:33 40.6925 -74.1687 143° Southeast  Level Estimated
15:34 40.6925 -74.1687 143° Southeast  Level Estimated